Time;durP1;ratioP1;P1;durP2;ratioP2;P2;SDS_P1;SDS_P2;PMS_P1;PMS_P2;Temp;Humidity;BMP_temperature;BMP_pressure;BME280_temperature;BME280_humidity;BME280_pressure;Samples;Min_cycle;Max_cycle;Signal;HPM_P1;HPM_P2
2021/04/07 00:00:18;;;;;;;3.63;1.30;;;2.40;81.80;;;;;;5114657;28;20766;-78
2021/04/07 00:02:44;;;;;;;8.00;1.25;;;2.20;81.80;;;;;;5120493;28;20464;-78
2021/04/07 00:05:15;;;;;;;4.77;1.50;;;2.00;81.70;;;;;;5114746;28;20219;-78
2021/04/07 00:07:44;;;;;;;6.95;1.80;;;2.00;81.80;;;;;;5114626;28;20413;-78
2021/04/07 00:10:13;;;;;;;6.85;3.65;;;2.00;82.10;;;;;;5114518;28;20179;-78
2021/04/07 00:12:40;;;;;;;6.57;1.95;;;2.10;82.40;;;;;;5100822;28;20199;-77
2021/04/07 00:15:12;;;;;;;3.20;0.98;;;2.00;82.40;;;;;;5093891;28;20230;-77
2021/04/07 00:17:38;;;;;;;1.70;1.60;;;2.10;82.50;;;;;;5093795;28;20179;-77
2021/04/07 00:20:10;;;;;;;3.93;1.20;;;2.10;82.10;;;;;;5093877;28;20267;-76
2021/04/07 00:22:36;;;;;;;1.38;1.05;;;2.20;82.30;;;;;;5094651;28;20187;-78
2021/04/07 00:25:02;;;;;;;7.27;1.10;;;2.10;82.40;;;;;;5093665;28;20191;-78
2021/04/07 00:27:28;;;;;;;11.52;1.30;;;2.10;82.50;;;;;;5093821;28;20265;-78
2021/04/07 00:29:54;;;;;;;6.97;1.15;;;2.10;82.50;;;;;;5093620;28;20187;-78
2021/04/07 00:32:20;;;;;;;3.90;1.30;;;2.10;82.20;;;;;;5092964;28;20207;-77
2021/04/07 00:34:45;;;;;;;2.27;1.23;;;2.10;82.20;;;;;;5093632;28;20250;-77
2021/04/07 00:37:11;;;;;;;1.57;1.33;;;2.00;82.40;;;;;;5093521;28;20496;-77
2021/04/07 00:39:37;;;;;;;4.00;1.10;;;2.00;82.80;;;;;;5093729;28;20643;-77
2021/04/07 00:42:05;;;;;;;3.20;1.20;;;2.00;83.70;;;;;;5094307;28;20454;-78
2021/04/07 00:44:31;;;;;;;9.45;1.10;;;2.00;83.10;;;;;;5094752;28;20259;-77
2021/04/07 00:46:57;;;;;;;8.35;1.25;;;2.10;83.00;;;;;;5094829;28;20222;-77
2021/04/07 00:49:24;;;;;;;4.13;1.00;;;2.10;83.10;;;;;;5094478;28;20188;-78
2021/04/07 00:51:51;;;;;;;2.00;1.23;;;2.00;83.10;;;;;;5092692;28;20294;-78
2021/04/07 00:54:17;;;;;;;5.15;0.90;;;2.00;83.20;;;;;;5093365;28;20269;-78
2021/04/07 00:56:44;;;;;;;3.30;1.20;;;2.00;83.20;;;;;;5099891;28;20176;-78
2021/04/07 00:59:12;;;;;;;3.13;1.02;;;2.00;83.30;;;;;;5107339;28;20300;-78
2021/04/07 01:01:39;;;;;;;2.15;1.05;;;2.10;83.50;;;;;;5114136;28;20569;-78
2021/04/07 01:04:05;;;;;;;3.28;0.90;;;2.10;83.60;;;;;;5117221;28;20584;-78
2021/04/07 01:06:34;;;;;;;3.30;1.20;;;2.10;83.60;;;;;;5113554;28;20638;-78
2021/04/07 01:09:00;;;;;;;1.73;1.63;;;2.00;83.50;;;;;;5113766;28;20186;-78
2021/04/07 01:11:27;;;;;;;5.07;1.20;;;2.10;83.70;;;;;;5109696;28;20229;-78
2021/04/07 01:13:53;;;;;;;2.40;1.20;;;2.20;83.50;;;;;;5094147;28;20602;-79
2021/04/07 01:16:21;;;;;;;4.50;1.52;;;2.10;83.10;;;;;;5094239;28;20742;-77
2021/04/07 01:18:47;;;;;;;4.65;1.13;;;2.20;83.70;;;;;;5092981;28;20176;-78
2021/04/07 01:21:13;;;;;;;2.27;1.20;;;2.10;82.80;;;;;;5092202;28;20635;-78
2021/04/07 01:23:44;;;;;;;3.73;1.10;;;2.10;82.70;;;;;;5092861;28;20463;-78
2021/04/07 01:26:11;;;;;;;3.00;1.00;;;2.20;82.50;;;;;;5094142;28;20487;-78
2021/04/07 01:28:36;;;;;;;3.45;1.20;;;2.20;82.40;;;;;;5092067;28;20179;-78
2021/04/07 01:31:02;;;;;;;3.97;1.13;;;2.20;82.40;;;;;;5093580;28;20179;-78
2021/04/07 01:33:28;;;;;;;4.90;1.20;;;2.20;82.20;;;;;;5092801;28;20783;-78
2021/04/07 01:35:54;;;;;;;4.40;1.50;;;2.20;82.10;;;;;;5094505;28;20547;-78
2021/04/07 01:38:21;;;;;;;5.70;1.55;;;2.20;82.10;;;;;;5093443;28;20179;-78
2021/04/07 01:40:48;;;;;;;3.63;1.35;;;2.10;82.10;;;;;;5093684;28;20274;-77
2021/04/07 01:43:17;;;;;;;6.43;1.75;;;2.20;83.20;;;;;;5092566;28;20192;-78
2021/04/07 01:45:45;;;;;;;4.18;2.13;;;2.20;82.70;;;;;;5093938;28;20254;-78
2021/04/07 01:48:12;;;;;;;3.97;1.80;;;2.30;83.00;;;;;;5092500;28;20272;-78
2021/04/07 01:50:40;;;;;;;4.18;1.80;;;2.30;83.10;;;;;;5099499;28;20188;-78
2021/04/07 01:53:07;;;;;;;14.52;3.90;;;2.30;83.50;;;;;;5093590;28;20192;-78
2021/04/07 01:55:33;;;;;;;8.32;4.13;;;2.30;83.80;;;;;;5092660;28;20273;-78
2021/04/07 01:57:59;;;;;;;11.10;3.20;;;2.40;84.00;;;;;;5095040;28;20606;-78
2021/04/07 02:00:24;;;;;;;7.93;4.20;;;2.40;84.00;;;;;;5112492;28;20175;-78
2021/04/07 02:02:50;;;;;;;9.27;4.37;;;2.50;84.20;;;;;;5112123;28;20455;-78
2021/04/07 02:05:16;;;;;;;7.40;3.80;;;2.40;84.20;;;;;;5112371;28;20179;-78
2021/04/07 02:07:42;;;;;;;11.27;4.18;;;2.40;84.40;;;;;;5113652;28;20167;-78
2021/04/07 02:10:10;;;;;;;6.70;5.10;;;2.40;84.50;;;;;;5112291;28;20201;-78
2021/04/07 02:12:36;;;;;;;7.72;3.10;;;2.30;84.60;;;;;;5098749;28;20525;-78
2021/04/07 02:15:10;;;;;;;7.00;3.03;;;2.30;84.90;;;;;;5091798;28;20208;-78
2021/04/07 02:17:36;;;;;;;6.30;2.13;;;2.30;85.00;;;;;;5091833;28;20182;-78
2021/04/07 02:20:03;;;;;;;6.47;2.33;;;2.10;85.50;;;;;;5092036;28;20550;-77
2021/04/07 02:22:29;;;;;;;8.45;2.42;;;2.00;86.10;;;;;;5091346;28;20286;-77
2021/04/07 02:24:54;;;;;;;5.07;1.73;;;2.00;86.40;;;;;;5094287;28;20606;-78
2021/04/07 02:27:23;;;;;;;6.80;1.90;;;2.00;86.70;;;;;;5092069;28;20176;-78
2021/04/07 02:29:55;;;;;;;5.88;2.17;;;2.00;86.90;;;;;;5092013;28;20635;-78
2021/04/07 02:32:22;;;;;;;20.83;2.70;;;2.00;87.10;;;;;;5092221;28;20211;-78
2021/04/07 02:34:48;;;;;;;6.53;1.85;;;2.00;87.00;;;;;;5092191;28;20203;-78
2021/04/07 02:37:15;;;;;;;6.60;1.90;;;2.00;87.10;;;;;;5093996;28;20175;-78
2021/04/07 02:39:43;;;;;;;11.15;2.13;;;2.00;87.00;;;;;;5103825;28;20485;-78
2021/04/07 02:42:10;;;;;;;3.75;2.00;;;2.00;87.00;;;;;;5104966;28;20204;-78
2021/04/07 02:44:36;;;;;;;2.55;1.25;;;2.10;87.10;;;;;;5107915;28;20179;-78
2021/04/07 02:47:03;;;;;;;4.47;1.88;;;2.00;86.70;;;;;;5101638;28;20171;-78
2021/04/07 02:49:28;;;;;;;4.50;1.90;;;2.20;86.60;;;;;;5093289;28;20588;-78
2021/04/07 02:51:55;;;;;;;4.23;2.00;;;2.10;86.40;;;;;;5093156;28;20262;-78
2021/04/07 02:54:24;;;;;;;4.60;1.45;;;2.20;86.20;;;;;;5094310;28;20662;-78
2021/04/07 02:56:50;;;;;;;9.32;1.65;;;2.20;86.00;;;;;;5092762;28;20639;-78
2021/04/07 02:59:16;;;;;;;3.58;1.60;;;2.20;85.80;;;;;;5106356;28;20171;-78
2021/04/07 03:01:42;;;;;;;6.00;1.70;;;2.30;85.70;;;;;;5113449;28;20239;-79
2021/04/07 03:04:08;;;;;;;7.73;1.87;;;2.20;85.20;;;;;;5111893;28;20171;-78
2021/04/07 03:06:34;;;;;;;14.13;2.30;;;2.20;85.10;;;;;;5111720;28;20545;-78
2021/04/07 03:09:00;;;;;;;5.30;2.60;;;2.10;85.00;;;;;;5113177;28;20489;-78
2021/04/07 03:11:27;;;;;;;4.68;2.50;;;2.10;85.00;;;;;;5106978;28;20421;-78
2021/04/07 03:13:53;;;;;;;12.63;3.70;;;2.20;84.80;;;;;;5091330;28;20208;-78
2021/04/07 03:16:19;;;;;;;14.07;4.50;;;2.20;84.80;;;;;;5091338;28;20249;-78
2021/04/07 03:18:44;;;;;;;12.77;4.03;;;2.20;84.70;;;;;;5092330;28;20459;-78
2021/04/07 03:21:10;;;;;;;9.07;4.53;;;2.30;84.70;;;;;;5090621;28;20452;-78
2021/04/07 03:23:36;;;;;;;9.53;4.60;;;2.30;84.50;;;;;;5091202;28;20180;-78
2021/04/07 03:26:02;;;;;;;19.97;5.70;;;2.30;84.40;;;;;;5092467;28;20463;-78
2021/04/07 03:28:28;;;;;;;9.85;4.65;;;2.30;84.30;;;;;;5092348;28;20603;-78
2021/04/07 03:30:54;;;;;;;15.35;4.35;;;2.20;84.10;;;;;;5090421;28;20208;-78
2021/04/07 03:33:29;;;;;;;14.23;5.20;;;2.30;84.10;;;;;;5091007;28;20195;-77
2021/04/07 03:35:55;;;;;;;10.15;4.00;;;2.30;83.90;;;;;;5091087;28;20195;-78
2021/04/07 03:38:21;;;;;;;8.20;4.32;;;2.30;83.90;;;;;;5093614;28;20176;-78
2021/04/07 03:40:47;;;;;;;11.73;4.33;;;2.30;84.00;;;;;;5093362;28;20176;-78
2021/04/07 03:43:16;;;;;;;11.98;4.05;;;2.30;84.10;;;;;;5092285;28;20428;-78
2021/04/07 03:45:44;;;;;;;14.18;3.80;;;2.40;84.00;;;;;;5092290;28;20176;-78
2021/04/07 03:48:11;;;;;;;13.60;3.90;;;2.50;83.90;;;;;;5090941;28;20206;-78
2021/04/07 03:50:37;;;;;;;11.23;3.67;;;2.50;83.80;;;;;;5091424;28;20667;-79
2021/04/07 03:53:03;;;;;;;6.03;3.67;;;2.40;83.70;;;;;;5093111;28;20287;-78
2021/04/07 03:55:29;;;;;;;11.95;3.60;;;2.50;83.60;;;;;;5095724;28;20208;-78
2021/04/07 03:57:55;;;;;;;7.00;3.60;;;2.50;83.50;;;;;;5098171;28;20696;-78
2021/04/07 04:00:21;;;;;;;13.50;3.50;;;2.60;83.40;;;;;;5116014;28;20405;-78
2021/04/07 04:02:47;;;;;;;11.93;3.88;;;2.60;83.20;;;;;;5115603;28;20458;-78
2021/04/07 04:05:13;;;;;;;22.40;4.30;;;2.60;83.10;;;;;;5115918;28;20210;-78
2021/04/07 04:07:39;;;;;;;6.68;3.63;;;2.60;83.10;;;;;;5115979;28;20650;-78
2021/04/07 04:10:05;;;;;;;5.23;2.93;;;2.60;83.20;;;;;;5116068;28;20180;-78
2021/04/07 04:12:31;;;;;;;24.42;3.97;;;2.60;83.10;;;;;;5101665;28;20670;-77
2021/04/07 04:14:56;;;;;;;15.63;4.33;;;2.70;83.00;;;;;;5094125;28;20276;-78
2021/04/07 04:17:22;;;;;;;10.33;3.60;;;2.70;82.70;;;;;;5095924;28;20472;-78
2021/04/07 04:19:49;;;;;;;12.10;3.83;;;2.60;82.60;;;;;;5096314;28;20230;-78
2021/04/07 04:22:15;;;;;;;16.00;4.40;;;2.70;82.50;;;;;;5094878;28;20194;-78
2021/04/07 04:24:42;;;;;;;13.00;3.30;;;2.70;82.40;;;;;;5095627;28;20180;-78
2021/04/07 04:27:08;;;;;;;8.93;3.65;;;2.80;82.10;;;;;;5095373;28;20222;-78
2021/04/07 04:29:35;;;;;;;9.02;3.70;;;2.70;81.90;;;;;;5096645;28;20275;-78
2021/04/07 04:32:01;;;;;;;7.63;3.50;;;2.70;81.90;;;;;;5094930;28;20553;-78
2021/04/07 04:34:27;;;;;;;6.00;3.85;;;2.70;81.70;;;;;;5099801;28;20303;-78
2021/04/07 04:36:53;;;;;;;25.77;3.83;;;2.80;81.50;;;;;;5096509;28;20176;-78
2021/04/07 04:39:18;;;;;;;8.17;3.13;;;2.80;81.40;;;;;;5096365;28;20172;-78
2021/04/07 04:41:44;;;;;;;8.60;3.60;;;2.80;81.10;;;;;;5095583;28;20184;-78
2021/04/07 04:44:10;;;;;;;8.10;3.03;;;2.80;81.10;;;;;;5095158;28;20199;-78
2021/04/07 04:46:36;;;;;;;5.23;3.00;;;2.80;80.70;;;;;;5094698;28;20175;-78
2021/04/07 04:49:02;;;;;;;7.82;2.83;;;2.70;79.90;;;;;;5095049;28;20184;-78
2021/04/07 04:51:27;;;;;;;15.75;2.80;;;2.70;79.30;;;;;;5095133;28;20184;-78
2021/04/07 04:53:54;;;;;;;10.27;2.93;;;2.80;79.00;;;;;;5093217;28;20200;-78
2021/04/07 04:56:20;;;;;;;8.20;2.65;;;2.90;79.00;;;;;;5094577;28;20776;-78
2021/04/07 04:58:46;;;;;;;5.70;2.03;;;2.80;78.60;;;;;;5103875;28;20167;-78
2021/04/07 05:01:12;;;;;;;12.75;2.55;;;2.70;79.00;;;;;;5113041;28;20420;-78
2021/04/07 05:03:37;;;;;;;12.73;3.00;;;2.70;79.80;;;;;;5113930;28;20563;-78
2021/04/07 05:06:04;;;;;;;9.90;2.40;;;2.70;80.00;;;;;;5115167;28;20555;-78
2021/04/07 05:08:29;;;;;;;6.07;2.10;;;2.60;80.30;;;;;;5114880;28;20428;-78
2021/04/07 05:10:55;;;;;;;12.27;2.90;;;2.60;81.00;;;;;;5114478;28;20171;-78
2021/04/07 05:13:21;;;;;;;8.47;2.93;;;2.50;81.80;;;;;;5074518;28;20683;-78
2021/04/07 05:15:47;;;;;;;9.10;2.40;;;2.40;82.40;;;;;;5074641;28;20664;-78
2021/04/07 05:18:13;;;;;;;7.90;2.40;;;2.30;83.10;;;;;;5074494;28;20493;-78
2021/04/07 05:20:40;;;;;;;5.57;2.58;;;2.30;83.60;;;;;;5074092;28;20199;-78
2021/04/07 05:23:07;;;;;;;7.82;2.10;;;2.40;84.00;;;;;;5072876;28;20287;-78
2021/04/07 05:25:33;;;;;;;12.65;3.03;;;2.40;84.50;;;;;;5074815;28;20168;-78
2021/04/07 05:28:04;;;;;;;7.25;2.50;;;2.40;84.80;;;;;;5080009;28;20212;-78
2021/04/07 05:30:58;;;;;;;3.78;2.10;;;2.30;85.20;;;;;;5072244;28;20188;-79
2021/04/07 05:33:18;;;;;;;7.22;2.40;;;2.30;85.40;;;;;;5073574;28;20204;-78
2021/04/07 05:35:44;;;;;;;6.75;2.30;;;2.20;85.90;;;;;;5073663;28;20211;-78
2021/04/07 05:38:09;;;;;;;13.30;2.40;;;2.20;86.20;;;;;;5073665;28;20177;-78
2021/04/07 05:40:35;;;;;;;6.60;2.70;;;2.20;86.40;;;;;;5072875;28;20600;-79
2021/04/07 05:43:04;;;;;;;8.13;2.73;;;2.10;86.90;;;;;;5072193;28;20192;-78
2021/04/07 05:45:30;;;;;;;12.68;3.72;;;2.10;87.10;;;;;;5071738;28;20510;-78
2021/04/07 05:47:57;;;;;;;11.15;3.08;;;2.10;87.30;;;;;;5073374;28;20195;-78
2021/04/07 05:50:22;;;;;;;10.93;3.00;;;2.10;87.30;;;;;;5072165;28;20238;-78
2021/04/07 05:52:52;;;;;;;9.10;3.80;;;2.20;87.30;;;;;;5071419;28;20631;-78
2021/04/07 05:55:19;;;;;;;6.45;2.78;;;2.10;87.00;;;;;;5075795;28;20446;-78
2021/04/07 05:58:05;;;;;;;12.98;3.33;;;2.10;86.50;;;;;;5077537;28;20283;-78
2021/04/07 06:00:31;;;;;;;12.63;2.20;;;2.10;86.00;;;;;;5111835;28;20201;-79
2021/04/07 06:02:59;;;;;;;8.02;3.60;;;2.20;85.70;;;;;;5112403;28;20202;-77
2021/04/07 06:05:27;;;;;;;12.13;2.97;;;2.20;85.40;;;;;;5112374;28;20179;-78
2021/04/07 06:07:53;;;;;;;6.43;2.78;;;2.30;85.30;;;;;;5113583;28;20195;-78
2021/04/07 06:10:19;;;;;;;4.43;1.77;;;2.30;85.00;;;;;;5112103;28;20183;-78
2021/04/07 06:12:45;;;;;;;8.90;2.47;;;2.20;84.20;;;;;;5097650;28;20200;-78
2021/04/07 06:15:12;;;;;;;4.00;2.27;;;2.20;83.50;;;;;;5091385;28;20200;-78
2021/04/07 06:17:39;;;;;;;3.13;1.70;;;2.20;83.20;;;;;;5091865;28;20425;-78
2021/04/07 06:20:09;;;;;;;11.80;2.25;;;2.30;82.80;;;;;;5091596;28;20597;-78
2021/04/07 06:22:36;;;;;;;6.85;2.47;;;2.30;82.30;;;;;;5100509;28;20188;-78
2021/04/07 06:25:05;;;;;;;8.68;2.05;;;2.30;81.70;;;;;;5092125;28;20190;-78
2021/04/07 06:27:30;;;;;;;6.07;1.80;;;2.30;81.00;;;;;;5091447;28;20182;-78
2021/04/07 06:29:59;;;;;;;9.20;1.93;;;2.50;80.60;;;;;;5091362;28;20183;-78
2021/04/07 06:32:25;;;;;;;5.10;2.28;;;2.40;80.00;;;;;;5092489;28;20443;-78
2021/04/07 06:34:51;;;;;;;8.00;2.50;;;2.60;80.00;;;;;;5092892;28;20211;-78
2021/04/07 06:37:17;;;;;;;7.10;1.80;;;2.60;79.70;;;;;;5093025;28;20573;-78
2021/04/07 06:39:42;;;;;;;4.77;2.10;;;2.60;79.30;;;;;;5092853;28;20168;-78
2021/04/07 06:42:08;;;;;;;7.23;2.17;;;2.60;78.70;;;;;;5091998;28;20207;-78
2021/04/07 06:44:34;;;;;;;5.63;1.37;;;2.50;78.50;;;;;;5091400;28;20186;-78
2021/04/07 06:47:03;;;;;;;5.00;2.00;;;2.60;78.60;;;;;;5092655;28;20211;-78
2021/04/07 06:49:30;;;;;;;10.48;2.10;;;2.50;79.00;;;;;;5091189;28;20494;-78
2021/04/07 06:51:57;;;;;;;4.32;1.30;;;2.50;79.20;;;;;;5092408;28;20723;-78
2021/04/07 06:54:26;;;;;;;2.28;1.70;;;2.60;79.40;;;;;;5091496;28;20207;-78
2021/04/07 06:56:52;;;;;;;5.13;1.70;;;2.60;79.50;;;;;;5091387;28;20542;-77
2021/04/07 06:59:18;;;;;;;4.70;2.15;;;2.60;79.30;;;;;;5105321;28;20217;-77
2021/04/07 07:01:44;;;;;;;7.20;2.10;;;2.60;78.90;;;;;;5110850;28;20237;-77
2021/04/07 07:04:09;;;;;;;17.87;2.50;;;2.70;78.90;;;;;;5111591;28;20182;-77
2021/04/07 07:06:35;;;;;;;3.53;1.60;;;2.70;78.80;;;;;;5112839;28;20175;-77
2021/04/07 07:09:20;;;;;;;3.87;1.87;;;2.70;78.10;;;;;;5112980;28;20541;-77
2021/04/07 07:11:51;;;;;;;5.10;1.92;;;2.70;77.70;;;;;;5105327;28;20954;-77
2021/04/07 07:14:18;;;;;;;7.22;2.33;;;2.70;77.80;;;;;;5091325;28;20230;-77
2021/04/07 07:16:45;;;;;;;3.00;2.17;;;2.80;77.90;;;;;;5098056;28;20208;-77
2021/04/07 07:19:28;;;;;;;6.63;2.50;;;2.90;77.90;;;;;;5092979;28;20203;-77
2021/04/07 07:21:56;;;;;;;5.05;1.75;;;3.00;77.80;;;;;;5090652;28;20272;-77
2021/04/07 07:24:35;;;;;;;9.50;2.40;;;3.00;77.50;;;;;;5091084;28;20237;-77
2021/04/07 07:27:04;;;;;;;7.15;2.55;;;3.00;77.30;;;;;;5093424;28;20176;-77
2021/04/07 07:29:32;;;;;;;16.42;2.03;;;3.10;77.60;;;;;;5098653;28;20225;-77
2021/04/07 07:32:10;;;;;;;3.90;2.33;;;3.10;77.80;;;;;;5095038;28;20204;-77
2021/04/07 07:34:37;;;;;;;13.27;3.55;;;3.20;78.00;;;;;;5094637;28;20667;-77
2021/04/07 07:37:05;;;;;;;6.68;2.80;;;3.30;77.90;;;;;;5094679;28;20183;-78
2021/04/07 07:39:33;;;;;;;7.18;2.15;;;3.40;77.90;;;;;;5095970;28;20174;-78
2021/04/07 07:42:04;;;;;;;15.98;2.67;;;3.30;77.80;;;;;;5093997;28;20199;-78
2021/04/07 07:44:32;;;;;;;9.45;2.55;;;3.50;77.90;;;;;;5095010;28;20180;-78
2021/04/07 07:47:08;;;;;;;16.63;3.35;;;3.60;77.90;;;;;;5094856;28;20183;-78
2021/04/07 07:49:34;;;;;;;7.15;2.60;;;3.60;78.00;;;;;;5095865;28;20673;-78
2021/04/07 07:52:00;;;;;;;6.63;2.70;;;3.50;77.80;;;;;;5095251;28;20192;-78
2021/04/07 07:54:26;;;;;;;17.67;2.97;;;3.50;78.30;;;;;;5095786;28;20199;-78
2021/04/07 07:56:53;;;;;;;12.10;3.30;;;3.70;78.60;;;;;;5095747;28;20175;-78
2021/04/07 07:59:30;;;;;;;13.95;3.50;;;3.60;78.10;;;;;;5108451;28;20188;-78
2021/04/07 08:01:56;;;;;;;28.20;4.00;;;3.90;78.40;;;;;;5115364;28;20228;-77
2021/04/07 08:04:22;;;;;;;23.05;4.13;;;3.90;78.20;;;;;;5114496;28;20208;-77
2021/04/07 08:06:48;;;;;;;7.55;3.20;;;3.90;77.60;;;;;;5115919;28;20276;-77
2021/04/07 08:09:14;;;;;;;13.82;2.90;;;3.90;77.70;;;;;;5115310;28;20496;-77
2021/04/07 08:11:46;;;;;;;11.25;3.35;;;3.90;77.50;;;;;;5113197;28;20199;-79
2021/04/07 08:14:15;;;;;;;5.63;2.42;;;4.00;77.70;;;;;;5094232;28;20616;-78
2021/04/07 08:16:42;;;;;;;13.48;3.40;;;4.00;77.40;;;;;;5095283;28;20175;-78
2021/04/07 08:19:10;;;;;;;15.65;3.25;;;4.10;77.70;;;;;;5094253;28;20180;-78
2021/04/07 08:21:42;;;;;;;12.63;3.97;;;4.20;77.60;;;;;;5093496;28;20188;-78
2021/04/07 08:24:10;;;;;;;12.35;3.55;;;4.20;77.50;;;;;;5095353;28;20192;-78
2021/04/07 08:26:37;;;;;;;14.90;4.35;;;4.40;77.40;;;;;;5095467;28;20175;-78
2021/04/07 08:29:07;;;;;;;11.63;3.67;;;4.40;77.00;;;;;;5093988;28;20266;-78
2021/04/07 08:31:35;;;;;;;11.23;6.03;;;4.50;77.00;;;;;;5093219;28;20226;-78
2021/04/07 08:34:11;;;;;;;15.15;3.30;;;4.50;76.70;;;;;;5095294;28;20257;-78
2021/04/07 08:36:41;;;;;;;11.05;3.42;;;4.50;76.40;;;;;;5095620;28;20174;-78
2021/04/07 08:39:17;;;;;;;8.93;3.75;;;4.50;76.10;;;;;;5094685;28;20164;-78
2021/04/07 08:41:45;;;;;;;12.77;3.60;;;4.50;75.90;;;;;;5092986;28;20198;-78
2021/04/07 08:44:11;;;;;;;16.92;4.45;;;4.50;75.90;;;;;;5093548;28;20188;-77
2021/04/07 08:46:47;;;;;;;13.02;3.20;;;4.60;76.10;;;;;;5095136;28;20176;-77
2021/04/07 08:49:37;;;;;;;12.15;3.63;;;4.70;75.80;;;;;;5094995;28;20183;-77
2021/04/07 08:52:15;;;;;;;18.70;3.35;;;4.70;75.70;;;;;;5094499;28;20196;-78
2021/04/07 08:54:46;;;;;;;11.63;3.50;;;4.90;75.40;;;;;;5094685;28;20199;-78
2021/04/07 08:57:34;;;;;;;30.83;5.10;;;4.70;75.00;;;;;;5094919;28;20198;-78
2021/04/07 09:00:15;;;;;;;9.07;3.20;;;4.70;75.20;;;;;;5114588;28;20179;-79
2021/04/07 09:02:55;;;;;;;16.67;3.60;;;4.90;75.50;;;;;;5113696;28;20244;-78
2021/04/07 09:05:36;;;;;;;13.05;3.70;;;4.90;75.50;;;;;;5121750;28;20208;-78
2021/04/07 09:08:03;;;;;;;13.30;3.33;;;4.90;75.40;;;;;;5115508;28;20179;-78
2021/04/07 09:10:47;;;;;;;15.20;4.03;;;4.90;75.70;;;;;;5114596;28;20171;-78
2021/04/07 09:13:17;;;;;;;16.83;3.80;;;4.90;75.30;;;;;;5113457;28;20231;-77
2021/04/07 09:15:47;;;;;;;10.55;3.88;;;4.90;75.10;;;;;;5117893;28;20219;-77
2021/04/07 09:18:15;;;;;;;20.58;3.45;;;4.90;75.00;;;;;;5113844;28;20187;-77
2021/04/07 09:20:53;;;;;;;10.23;3.38;;;4.80;74.70;;;;;;5114246;28;20626;-78
2021/04/07 09:23:31;;;;;;;13.40;3.47;;;4.80;74.70;;;;;;5113199;28;20214;-78
2021/04/07 09:26:10;;;;;;;20.70;5.10;;;4.90;75.00;;;;;;5114614;28;20192;-78
2021/04/07 09:28:38;;;;;;;10.98;3.90;;;4.90;74.60;;;;;;5114388;28;20262;-78
2021/04/07 09:31:08;;;;;;;15.10;3.70;;;5.00;74.80;;;;;;5112574;28;20175;-78
2021/04/07 09:33:37;;;;;;;19.05;3.42;;;4.90;74.70;;;;;;5112912;28;20615;-78
2021/04/07 09:36:04;;;;;;;21.55;3.78;;;5.00;74.50;;;;;;5114410;28;20231;-78
2021/04/07 09:38:34;;;;;;;12.98;3.00;;;5.00;74.30;;;;;;5114287;28;20175;-78
2021/04/07 09:41:08;;;;;;;14.43;3.42;;;5.00;74.00;;;;;;5115225;28;20191;-78
2021/04/07 09:43:35;;;;;;;10.07;2.90;;;5.10;74.00;;;;;;5115780;28;20167;-78
2021/04/07 09:46:01;;;;;;;21.25;3.80;;;5.20;73.50;;;;;;5113954;28;20211;-77
2021/04/07 09:48:38;;;;;;;23.63;4.20;;;5.10;73.80;;;;;;5116120;28;20163;-78
2021/04/07 09:51:27;;;;;;;14.85;3.20;;;5.10;73.60;;;;;;5114377;28;20183;-78
2021/04/07 09:54:08;;;;;;;16.65;4.25;;;5.20;73.50;;;;;;5114796;28;20175;-78
2021/04/07 09:56:56;;;;;;;15.80;4.30;;;5.40;73.60;;;;;;5116079;28;20175;-78
2021/04/07 09:59:39;;;;;;;10.65;3.47;;;5.50;74.00;;;;;;5103760;28;20172;-78
2021/04/07 10:02:24;;;;;;;12.02;3.25;;;5.50;73.40;;;;;;5099209;28;20221;-78
2021/04/07 10:04:53;;;;;;;15.88;3.40;;;5.50;72.60;;;;;;5094197;28;20202;-78
2021/04/07 10:07:27;;;;;;;16.85;3.97;;;5.50;72.40;;;;;;5099881;28;20512;-78
2021/04/07 10:09:55;;;;;;;14.68;4.70;;;5.40;72.20;;;;;;5092511;28;20183;-78
2021/04/07 10:12:23;;;;;;;12.65;4.10;;;5.40;72.50;;;;;;5103710;28;20241;-78
2021/04/07 10:14:55;;;;;;;15.57;3.10;;;5.40;72.70;;;;;;5113715;28;20195;-78
2021/04/07 10:17:30;;;;;;;10.70;3.00;;;5.60;72.80;;;;;;5112288;28;20171;-78
2021/04/07 10:20:04;;;;;;;16.65;5.50;;;5.70;72.30;;;;;;5113498;28;20278;-78
2021/04/07 10:22:31;;;;;;;24.20;5.63;;;5.70;71.90;;;;;;5111646;28;20265;-78
2021/04/07 10:25:02;;;;;;;10.45;4.13;;;5.70;72.20;;;;;;5113367;28;20171;-78
2021/04/07 10:27:28;;;;;;;9.85;3.10;;;5.80;71.90;;;;;;5113415;28;20171;-78
2021/04/07 10:30:04;;;;;;;16.98;4.03;;;5.90;71.70;;;;;;5111824;28;20259;-78
2021/04/07 10:32:30;;;;;;;17.33;3.78;;;5.90;71.30;;;;;;5111381;28;20207;-78
2021/04/07 10:35:00;;;;;;;13.60;3.27;;;6.00;71.20;;;;;;5111958;28;20214;-77
2021/04/07 10:37:26;;;;;;;10.63;3.67;;;6.20;71.00;;;;;;5112141;28;20171;-77
2021/04/07 10:39:52;;;;;;;16.10;4.10;;;6.20;70.70;;;;;;5111885;28;20178;-77
2021/04/07 10:42:21;;;;;;;10.80;3.70;;;6.20;70.10;;;;;;5111407;28;20195;-78
2021/04/07 10:45:02;;;;;;;4.70;2.85;;;6.30;69.70;;;;;;5111751;28;20441;-78
2021/04/07 10:47:34;;;;;;;10.90;3.08;;;6.30;68.80;;;;;;5113178;28;20627;-78
2021/04/07 10:50:00;;;;;;;11.95;4.28;;;6.20;68.70;;;;;;5111555;28;20195;-78
2021/04/07 10:52:41;;;;;;;9.83;3.67;;;6.20;68.80;;;;;;5112702;28;20195;-78
2021/04/07 10:55:14;;;;;;;18.83;4.53;;;6.30;68.90;;;;;;5116159;28;20191;-78
2021/04/07 10:57:45;;;;;;;23.33;4.53;;;6.30;69.00;;;;;;5113975;28;20177;-78
2021/04/07 11:00:24;;;;;;;29.77;4.72;;;6.40;68.80;;;;;;5091184;28;20271;-78
2021/04/07 11:02:52;;;;;;;10.98;3.58;;;6.40;69.20;;;;;;5093200;28;20203;-78
2021/04/07 11:05:22;;;;;;;26.10;4.07;;;6.50;69.20;;;;;;5096896;28;20175;-78
2021/04/07 11:08:03;;;;;;;19.20;4.88;;;6.50;69.10;;;;;;5095585;28;20211;-78
2021/04/07 11:10:39;;;;;;;15.02;4.15;;;6.60;69.40;;;;;;5096274;28;20168;-78
2021/04/07 11:13:06;;;;;;;13.77;3.92;;;6.40;69.70;;;;;;5113618;28;20683;-78
2021/04/07 11:15:32;;;;;;;18.60;4.20;;;6.50;70.40;;;;;;5116359;28;20608;-78
2021/04/07 11:17:58;;;;;;;16.65;3.42;;;6.40;70.60;;;;;;5118193;28;20498;-78
2021/04/07 11:20:25;;;;;;;32.37;3.90;;;6.50;70.70;;;;;;5117986;28;20178;-78
2021/04/07 11:22:51;;;;;;;12.80;4.22;;;6.30;70.10;;;;;;5117872;28;20498;-77
2021/04/07 11:25:20;;;;;;;18.13;4.03;;;6.30;70.40;;;;;;5116833;28;20178;-77
2021/04/07 11:27:52;;;;;;;8.45;3.50;;;6.10;70.50;;;;;;5115698;28;20182;-77
2021/04/07 11:30:19;;;;;;;24.17;4.45;;;6.10;71.10;;;;;;5115179;28;20183;-77
2021/04/07 11:32:48;;;;;;;18.65;2.90;;;6.20;71.20;;;;;;5114580;28;20191;-78
2021/04/07 11:35:22;;;;;;;13.80;3.38;;;6.10;70.90;;;;;;5115296;28;20207;-77
2021/04/07 11:41:39;;;;;;;7.47;3.22;;;6.00;70.30;;;;;;5116677;27;20183;-77
2021/04/07 11:44:24;;;;;;;13.02;3.20;;;6.00;70.00;;;;;;5110500;28;20203;-78
2021/04/07 11:45:56;;;;;;;9.02;3.17;;;6.00;69.60;;;;;;5105907;28;20178;-77
2021/04/07 11:48:22;;;;;;;7.13;3.63;;;6.20;69.30;;;;;;5120786;28;20176;-77
2021/04/07 11:50:48;;;;;;;10.03;2.80;;;6.30;69.20;;;;;;5119206;28;20195;-78
2021/04/07 11:53:13;;;;;;;8.87;3.37;;;6.20;68.70;;;;;;5118572;28;20545;-78
2021/04/07 11:55:41;;;;;;;14.00;3.17;;;6.40;68.60;;;;;;5115021;28;20209;-78
2021/04/07 11:58:07;;;;;;;10.93;2.92;;;6.20;68.00;;;;;;5116478;28;20163;-78
2021/04/07 12:00:33;;;;;;;8.93;2.70;;;6.30;68.00;;;;;;5114353;28;20175;-78
2021/04/07 12:02:59;;;;;;;14.63;3.05;;;6.40;67.20;;;;;;5114694;28;20911;-78
2021/04/07 12:05:29;;;;;;;12.20;3.80;;;6.40;67.10;;;;;;5116459;28;20189;-78
2021/04/07 12:07:54;;;;;;;27.77;4.53;;;6.80;67.20;;;;;;5115509;28;20549;-78
2021/04/07 12:10:22;;;;;;;7.40;2.10;;;6.90;66.40;;;;;;5116653;28;20171;-77
2021/04/07 12:12:48;;;;;;;10.60;2.80;;;7.00;65.50;;;;;;5098816;28;20213;-77
2021/04/07 12:15:15;;;;;;;13.30;2.97;;;6.70;64.00;;;;;;5093829;28;20333;-77
2021/04/07 12:17:41;;;;;;;12.02;2.38;;;6.60;63.90;;;;;;5095289;28;20168;-77
2021/04/07 12:20:07;;;;;;;6.35;2.92;;;6.70;63.80;;;;;;5094069;28;20285;-77
2021/04/07 12:22:33;;;;;;;17.25;2.92;;;6.50;63.10;;;;;;5093661;28;20635;-78
2021/04/07 12:24:59;;;;;;;7.97;2.53;;;6.60;62.30;;;;;;5095708;28;20195;-77
2021/04/07 12:27:25;;;;;;;10.20;1.97;;;6.70;61.50;;;;;;5094550;28;20180;-77
2021/04/07 12:29:51;;;;;;;8.47;2.40;;;6.90;60.60;;;;;;5096179;28;20184;-78
2021/04/07 12:32:16;;;;;;;8.93;2.03;;;7.00;59.80;;;;;;5093392;28;20196;-77
2021/04/07 12:34:43;;;;;;;7.07;1.60;;;7.00;59.80;;;;;;5093932;28;20200;-77
2021/04/07 12:37:09;;;;;;;17.20;2.22;;;7.20;57.90;;;;;;5094858;28;20410;-77
2021/04/07 12:39:36;;;;;;;10.40;2.30;;;7.50;57.00;;;;;;5093585;28;20264;-78
2021/04/07 12:42:06;;;;;;;5.53;1.67;;;7.50;55.90;;;;;;5095503;28;20212;-78
2021/04/07 12:44:32;;;;;;;10.13;2.17;;;7.40;56.40;;;;;;5096978;28;20184;-78
2021/04/07 12:46:58;;;;;;;11.60;2.45;;;7.40;56.90;;;;;;5094785;28;20587;-78
2021/04/07 12:49:24;;;;;;;10.30;2.60;;;7.20;57.90;;;;;;5094563;28;20195;-77
2021/04/07 12:51:49;;;;;;;9.80;2.00;;;7.40;58.30;;;;;;5092759;28;20550;-78
2021/04/07 12:54:15;;;;;;;3.40;1.80;;;7.40;58.80;;;;;;5094766;28;20557;-77
2021/04/07 12:56:41;;;;;;;4.63;2.23;;;7.40;57.80;;;;;;5093952;28;20532;-78
2021/04/07 12:59:07;;;;;;;12.13;2.70;;;7.40;57.60;;;;;;5106879;28;20175;-78
2021/04/07 13:01:33;;;;;;;4.73;1.70;;;7.40;57.00;;;;;;5113099;28;20195;-78